createdAt,value
2017-11-16T00:02:21.286Z,99363.86
2017-11-16T00:04:55.383Z,99359.78
2017-11-16T00:07:26.974Z,99362.91
2017-11-16T00:12:30.740Z,99353.67
2017-11-16T00:15:01.405Z,99351.44
2017-11-16T00:17:32.590Z,99344.48
2017-11-16T00:20:06.924Z,99342.02
2017-11-16T00:22:37.385Z,99347.33
2017-11-16T00:25:09.830Z,99344.40
2017-11-16T00:27:42.216Z,99351.45
2017-11-16T00:33:05.167Z,99343.77
2017-11-16T00:35:36.911Z,99334.72
2017-11-16T00:40:42.174Z,99334.95
2017-11-16T00:43:12.791Z,99327.83
2017-11-16T00:45:43.198Z,99327.77
2017-11-16T00:48:14.422Z,99334.45
2017-11-16T00:50:44.634Z,99331.16
2017-11-16T00:53:14.537Z,99325.42
2017-11-16T00:55:46.540Z,99331.48
2017-11-16T00:58:16.756Z,99332.52
2017-11-16T01:00:47.148Z,99332.46
2017-11-16T01:03:20.237Z,99325.83
2017-11-16T01:05:50.575Z,99323.99
2017-11-16T01:08:21.628Z,99323.60
2017-11-16T01:10:52.390Z,99324.38
2017-11-16T01:13:22.687Z,99320.48
2017-11-16T01:15:53.423Z,99321.48
2017-11-16T01:18:23.728Z,99318.82
2017-11-16T01:23:28.459Z,99320.95
2017-11-16T01:28:32.656Z,99306.20
2017-11-16T01:33:36.749Z,99312.62
2017-11-16T01:36:08.585Z,99306.49
2017-11-16T01:38:38.668Z,99308.13
2017-11-16T01:41:11.297Z,99301.33
2017-11-16T01:43:40.984Z,99297.25
2017-11-16T01:48:45.760Z,99306.83
2017-11-16T01:51:16.268Z,99298.45
2017-11-16T01:53:46.709Z,99300.81
2017-11-16T01:56:18.081Z,99303.30
2017-11-16T01:58:52.706Z,99298.14
2017-11-16T02:01:24.149Z,99298.63
2017-11-16T02:03:54.192Z,99296.19
2017-11-16T02:06:25.814Z,99298.05
2017-11-16T02:14:07.502Z,99289.89
2017-11-16T02:16:37.650Z,99288.95
2017-11-16T02:19:08.583Z,99286.69
2017-11-16T02:26:45.291Z,99290.80
2017-11-16T02:29:14.931Z,99295.37
2017-11-16T02:45:08.081Z,99286.19
2017-11-16T03:03:24.722Z,99264.89
2017-11-16T03:33:12.771Z,99272.41
2017-11-16T03:43:26.854Z,99276.18
2017-11-16T04:16:23.862Z,99267.70
2017-11-16T04:24:03.330Z,99260.04
2017-11-16T04:26:34.186Z,99263.46
2017-11-16T04:31:40.881Z,99255.30
2017-11-16T04:34:10.678Z,99253.92
2017-11-16T04:36:40.829Z,99252.17
2017-11-16T04:41:45.434Z,99243.02
2017-11-16T04:46:59.761Z,99243.02
2017-11-16T04:54:40.271Z,99237.29
2017-11-16T04:59:47.739Z,99231.55
2017-11-16T05:02:17.652Z,99232.77
2017-11-16T05:04:48.017Z,99230.20
2017-11-16T05:07:18.714Z,99230.92
2017-11-16T05:09:49.401Z,99225.04
2017-11-16T05:12:20.843Z,99233.83
2017-11-16T05:20:09.684Z,99239.20
2017-11-16T05:22:40.785Z,99240.32
2017-11-16T05:25:11.343Z,99238.05
2017-11-16T05:30:20.321Z,99239.61
2017-11-16T05:35:37.937Z,99238.20
2017-11-16T05:40:43.204Z,99245.66
2017-11-16T05:46:00.970Z,99240.95
2017-11-16T05:48:33.106Z,99237.52
2017-11-16T05:51:03.855Z,99236.60
2017-11-16T05:53:33.899Z,99242.16
2017-11-16T05:56:05.144Z,99244.68
2017-11-16T05:58:35.286Z,99246.00
2017-11-16T06:01:05.282Z,99247.81
2017-11-16T06:03:36.316Z,99243.55
2017-11-16T06:06:08.261Z,99246.68
2017-11-16T06:08:38.552Z,99250.94
2017-11-16T06:11:08.753Z,99247.64
2017-11-16T06:13:41.535Z,99243.20
2017-11-16T06:16:13.504Z,99249.72
2017-11-16T06:18:43.507Z,99253.03
2017-11-16T06:21:13.893Z,99259.35
2017-11-16T06:26:23.188Z,99269.88
2017-11-16T06:28:53.088Z,99267.78
2017-11-16T06:31:22.863Z,99270.32
2017-11-16T06:33:53.558Z,99274.00
2017-11-16T06:36:23.755Z,99270.75
2017-11-16T06:38:53.521Z,99277.02
2017-11-16T06:41:23.270Z,99280.68
2017-11-16T06:43:53.290Z,99280.05
2017-11-16T06:46:37.244Z,99272.49
2017-11-16T06:49:11.000Z,99277.48
2017-11-16T06:51:41.239Z,99276.42
2017-11-16T06:54:12.710Z,99273.19
2017-11-16T06:56:43.952Z,99281.02
2017-11-16T06:59:14.835Z,99285.92
2017-11-16T07:01:44.919Z,99286.58
2017-11-16T07:04:20.131Z,99278.69
2017-11-16T07:06:54.051Z,99277.83
2017-11-16T07:09:25.534Z,99277.59
2017-11-16T07:12:03.105Z,99276.41
2017-11-16T07:14:40.262Z,99279.86
2017-11-16T07:17:12.336Z,99277.56
2017-11-16T07:19:43.485Z,99279.30
2017-11-16T07:22:13.444Z,99274.63
2017-11-16T07:24:44.665Z,99270.78
2017-11-16T07:27:16.227Z,99275.78
2017-11-16T07:29:46.096Z,99280.05
2017-11-16T07:32:19.692Z,99281.70
2017-11-16T07:34:49.731Z,99278.25
2017-11-16T07:37:19.649Z,99274.16
2017-11-16T07:39:49.441Z,99268.05
2017-11-16T07:42:19.340Z,99276.66
2017-11-16T07:44:49.226Z,99273.36
2017-11-16T07:47:19.060Z,99266.06
2017-11-16T07:49:48.840Z,99265.58
2017-11-16T07:52:18.690Z,99260.18
2017-11-16T07:54:48.375Z,99264.50
2017-11-16T07:57:18.062Z,99271.14
2017-11-16T08:02:31.942Z,99278.38
2017-11-16T08:05:01.865Z,99275.21
2017-11-16T08:07:31.847Z,99271.35
2017-11-16T08:10:01.766Z,99276.86
2017-11-16T08:12:31.653Z,99275.04
2017-11-16T08:15:01.809Z,99266.86
2017-11-16T08:17:33.689Z,99270.85
2017-11-16T08:20:03.594Z,99266.21
2017-11-16T08:22:33.550Z,99262.66
2017-11-16T08:25:03.555Z,99265.75
2017-11-16T08:27:33.414Z,99260.89
2017-11-16T08:30:03.473Z,99255.80
2017-11-16T08:32:33.666Z,99257.98
2017-11-16T08:35:03.573Z,99255.35
2017-11-16T08:37:33.546Z,99256.78
2017-11-16T08:40:03.552Z,99257.41
2017-11-16T08:42:33.874Z,99253.77
2017-11-16T08:45:07.397Z,99254.61
2017-11-16T08:47:38.138Z,99251.72
2017-11-16T08:50:08.495Z,99247.20
2017-11-16T08:52:38.184Z,99238.73
2017-11-16T08:55:08.350Z,99239.23
2017-11-16T08:57:38.358Z,99249.58
2017-11-16T09:00:09.557Z,99240.69
2017-11-16T09:02:39.249Z,99234.80
2017-11-16T09:05:09.061Z,99247.58
2017-11-16T09:07:38.980Z,99241.62
2017-11-16T09:10:11.442Z,99243.84
2017-11-16T09:12:41.799Z,99241.98
2017-11-16T09:15:11.352Z,99238.87
2017-11-16T09:17:41.216Z,99239.03
2017-11-16T09:20:12.017Z,99236.47
2017-11-16T09:22:42.080Z,99240.47
2017-11-16T09:25:12.088Z,99237.44
2017-11-16T09:27:42.369Z,99233.56
2017-11-16T09:30:12.156Z,99227.76
2017-11-16T09:32:43.129Z,99224.80
2017-11-16T09:35:13.615Z,99215.44
2017-11-16T09:37:43.321Z,99218.66
2017-11-16T09:40:14.571Z,99214.64
2017-11-16T09:42:44.573Z,99215.31
2017-11-16T09:45:14.772Z,99206.30
2017-11-16T09:47:44.594Z,99206.50
2017-11-16T09:50:14.745Z,99202.70
2017-11-16T09:52:44.456Z,99207.20
2017-11-16T09:55:14.551Z,99193.52
2017-11-16T09:57:44.841Z,99204.23
2017-11-16T10:00:16.890Z,99202.27
2017-11-16T10:02:46.701Z,99198.82
2017-11-16T10:05:17.361Z,99201.41
2017-11-16T10:08:00.999Z,99199.20
2017-11-16T10:10:35.147Z,99199.14
2017-11-16T10:13:05.272Z,99198.48
2017-11-16T10:15:35.121Z,99187.00
2017-11-16T10:18:04.897Z,99189.25
2017-11-16T10:20:34.846Z,99194.09
2017-11-16T10:23:05.555Z,99186.34
2017-11-16T10:25:35.597Z,99184.77
2017-11-16T10:28:05.426Z,99172.94
2017-11-16T10:30:35.265Z,99171.44
2017-11-16T10:33:05.317Z,99171.39
2017-11-16T10:35:34.717Z,99158.62
2017-11-16T10:38:04.209Z,99149.50
2017-11-16T10:40:34.112Z,99158.43
2017-11-16T10:43:03.721Z,99154.15
2017-11-16T10:45:33.833Z,99158.19
2017-11-16T10:48:04.526Z,99156.64
2017-11-16T10:50:35.038Z,99150.72
2017-11-16T10:53:07.901Z,99152.30
2017-11-16T10:55:38.567Z,99148.57
2017-11-16T10:58:08.320Z,99146.34
2017-11-16T11:00:38.232Z,99131.84
2017-11-16T11:03:09.462Z,99137.94
2017-11-16T11:05:39.215Z,99133.52
2017-11-16T11:08:09.384Z,99132.56
2017-11-16T11:10:40.495Z,99129.08
2017-11-16T11:13:11.078Z,99125.55
2017-11-16T11:15:41.669Z,99113.17
2017-11-16T11:18:12.644Z,99116.37
2017-11-16T11:20:43.852Z,99114.67
2017-11-16T11:23:13.463Z,99111.38
2017-11-16T11:25:47.530Z,99117.13
2017-11-16T11:28:20.359Z,99115.31
2017-11-16T11:30:50.303Z,99108.98
2017-11-16T11:33:20.124Z,99097.92
2017-11-16T11:35:49.864Z,99097.80
2017-11-16T11:38:19.695Z,99096.80
2017-11-16T11:40:49.316Z,99097.60
2017-11-16T11:43:18.932Z,99099.29
2017-11-16T11:45:49.267Z,99102.13
2017-11-16T11:48:19.068Z,99109.44
2017-11-16T11:50:48.945Z,99105.03
2017-11-16T11:53:20.797Z,99104.23
2017-11-16T11:55:50.743Z,99105.62
2017-11-16T11:58:21.309Z,99106.41
2017-11-16T12:00:51.005Z,99104.88
2017-11-16T12:03:25.359Z,99087.58
2017-11-16T12:05:56.660Z,99097.84
2017-11-16T12:08:27.900Z,99086.33
2017-11-16T12:10:57.564Z,99089.24
2017-11-16T12:13:26.767Z,99092.78
2017-11-16T12:15:56.493Z,99089.33
2017-11-16T12:18:26.094Z,99088.34
2017-11-16T12:20:55.772Z,99089.44
2017-11-16T12:23:25.926Z,99085.67
2017-11-16T12:25:55.511Z,99085.33
2017-11-16T12:28:25.238Z,99079.53
2017-11-16T12:30:54.517Z,99078.23
2017-11-16T12:33:27.983Z,99088.73
2017-11-16T12:36:00.903Z,99081.20
2017-11-16T12:38:31.716Z,99083.39
2017-11-16T12:41:01.426Z,99070.77
2017-11-16T12:43:31.915Z,99074.26
2017-11-16T12:46:01.217Z,99076.56
2017-11-16T12:48:30.985Z,99077.70
2017-11-16T12:51:00.665Z,99072.34
2017-11-16T12:53:47.603Z,99068.38
2017-11-16T12:56:29.862Z,99070.84
2017-11-16T12:59:00.435Z,99075.47
2017-11-16T13:01:30.268Z,99078.33
2017-11-16T13:04:00.074Z,99068.23
2017-11-16T13:06:29.791Z,99070.72
2017-11-16T13:09:01.245Z,99070.36
2017-11-16T13:11:32.921Z,99077.94
2017-11-16T13:14:05.851Z,99074.27
2017-11-16T13:16:36.602Z,99072.73
2017-11-16T13:19:06.259Z,99069.50
2017-11-16T13:21:36.463Z,99073.44
2017-11-16T13:24:16.291Z,99075.60
2017-11-16T13:27:01.373Z,99079.44
2017-11-16T13:29:31.829Z,99076.13
2017-11-16T13:32:02.304Z,99074.41
2017-11-16T13:34:32.825Z,99074.60
2017-11-16T13:37:03.622Z,99076.77
2017-11-16T13:39:35.402Z,99070.69
2017-11-16T13:42:05.229Z,99076.70
2017-11-16T13:44:35.109Z,99074.41
2017-11-16T13:47:05.524Z,99073.48
2017-11-16T13:49:35.406Z,99074.61
2017-11-16T13:52:06.197Z,99079.84
2017-11-16T13:54:35.840Z,99081.78
2017-11-16T13:57:05.784Z,99079.15
2017-11-16T13:59:35.937Z,99079.62
2017-11-16T14:02:06.805Z,99083.66
2017-11-16T14:04:37.670Z,99081.16
2017-11-16T14:07:08.510Z,99080.47
2017-11-16T14:09:38.510Z,99072.44
2017-11-16T14:12:09.612Z,99077.83
2017-11-16T14:14:43.855Z,99080.88
2017-11-16T14:17:13.832Z,99083.16
2017-11-16T14:19:45.689Z,99081.81
2017-11-16T14:22:16.984Z,99079.30
2017-11-16T14:24:46.515Z,99080.12
2017-11-16T14:27:17.117Z,99077.08
2017-11-16T14:29:52.324Z,99084.39
2017-11-16T14:32:22.370Z,99084.49
2017-11-16T14:34:52.382Z,99082.42
2017-11-16T14:37:23.573Z,99084.61
2017-11-16T14:39:53.896Z,99085.73
2017-11-16T14:42:23.655Z,99095.80
2017-11-16T14:44:53.706Z,99093.36
2017-11-16T14:47:23.678Z,99093.55
2017-11-16T14:49:53.585Z,99096.54
2017-11-16T14:52:23.512Z,99100.65
2017-11-16T14:54:53.802Z,99104.53
2017-11-16T14:57:24.820Z,99110.10
2017-11-16T14:59:55.042Z,99105.78
2017-11-16T15:02:25.782Z,99104.73
2017-11-16T15:04:55.882Z,99113.58
2017-11-16T15:07:25.733Z,99116.66
2017-11-16T15:09:57.310Z,99113.21
2017-11-16T15:12:27.805Z,99110.76
2017-11-16T15:14:58.155Z,99117.22
2017-11-16T15:17:28.360Z,99116.52
2017-11-16T15:19:59.031Z,99114.35
2017-11-16T15:22:29.248Z,99119.03
2017-11-16T15:24:59.595Z,99122.72
2017-11-16T15:27:31.669Z,99119.06
2017-11-16T15:30:01.560Z,99119.97
2017-11-16T15:32:31.487Z,99125.13
2017-11-16T15:35:01.899Z,99120.81
2017-11-16T15:37:32.412Z,99130.24
2017-11-16T15:40:03.658Z,99134.20
2017-11-16T15:42:33.639Z,99130.58
2017-11-16T15:45:07.380Z,99134.71
2017-11-16T15:47:37.499Z,99130.79
2017-11-16T15:50:07.829Z,99129.30
2017-11-16T15:52:37.658Z,99137.69
2017-11-16T15:55:08.925Z,99141.48
2017-11-16T15:57:40.025Z,99141.05
2017-11-16T16:00:10.268Z,99140.41
2017-11-16T16:02:40.153Z,99138.52
2017-11-16T16:05:11.168Z,99142.48
2017-11-16T16:07:41.063Z,99142.80
2017-11-16T16:10:11.428Z,99143.72
2017-11-16T16:12:41.282Z,99148.14
2017-11-16T16:15:11.220Z,99143.27
2017-11-16T16:17:41.259Z,99142.20
2017-11-16T16:20:11.250Z,99147.80
2017-11-16T16:22:41.362Z,99149.52
2017-11-16T16:25:11.276Z,99141.77
2017-11-16T16:27:41.180Z,99143.66
2017-11-16T16:30:11.062Z,99145.11
2017-11-16T16:32:40.614Z,99152.46
2017-11-16T16:35:10.772Z,99151.19
2017-11-16T16:37:41.692Z,99160.03
2017-11-16T16:40:12.225Z,99152.10
2017-11-16T16:42:42.245Z,99150.59
2017-11-16T16:45:12.325Z,99148.86
2017-11-16T16:47:42.139Z,99146.95
2017-11-16T16:50:12.120Z,99150.41
2017-11-16T16:52:42.512Z,99153.27
2017-11-16T16:55:12.770Z,99150.83
2017-11-16T16:57:42.720Z,99155.84
2017-11-16T17:00:12.582Z,99151.32
2017-11-16T17:02:43.308Z,99148.22
2017-11-16T17:05:13.319Z,99149.36
2017-11-16T17:07:43.413Z,99150.60
2017-11-16T17:10:13.194Z,99149.70
2017-11-16T17:12:43.147Z,99147.73
2017-11-16T17:15:12.673Z,99148.91
2017-11-16T17:17:42.514Z,99155.55
2017-11-16T17:20:12.913Z,99157.56
2017-11-16T17:22:43.858Z,99159.89
2017-11-16T17:25:13.878Z,99154.19
2017-11-16T17:27:46.143Z,99157.07
2017-11-16T17:30:16.641Z,99161.16
2017-11-16T17:32:46.464Z,99155.58
2017-11-16T17:35:16.397Z,99160.70
2017-11-16T17:37:46.403Z,99154.11
2017-11-16T17:40:16.296Z,99159.11
2017-11-16T17:42:46.079Z,99153.92
2017-11-16T17:45:15.686Z,99157.17
2017-11-16T17:47:49.442Z,99154.89
2017-11-16T17:50:19.330Z,99149.57
2017-11-16T17:52:49.134Z,99155.13
2017-11-16T17:55:18.907Z,99149.75
2017-11-16T17:57:48.412Z,99156.34
2017-11-16T18:00:18.141Z,99159.50
2017-11-16T18:02:49.541Z,99157.44
2017-11-16T18:05:19.138Z,99158.73
2017-11-16T18:07:48.898Z,99159.41
2017-11-16T18:10:36.170Z,99170.80
2017-11-16T18:24:35.396Z,99180.38
2017-11-16T18:30:34.595Z,99177.59
2017-11-16T18:35:55.836Z,99181.88
2017-11-16T18:38:35.455Z,99183.20
2017-11-16T18:41:06.834Z,99188.41
2017-11-16T18:43:36.644Z,99186.88
2017-11-16T18:46:06.613Z,99190.78
2017-11-16T18:48:36.534Z,99194.30
2017-11-16T18:51:06.534Z,99190.62
2017-11-16T18:53:37.239Z,99195.95
2017-11-16T18:56:07.138Z,99196.39
2017-11-16T18:58:37.020Z,99194.86
2017-11-16T19:01:07.216Z,99192.53
2017-11-16T19:03:39.219Z,99198.67
2017-11-16T19:06:10.160Z,99193.91
2017-11-16T19:08:40.065Z,99195.55
2017-11-16T19:11:10.090Z,99205.29
2017-11-16T19:13:39.916Z,99204.16
2017-11-16T19:16:09.989Z,99204.66
2017-11-16T19:18:39.900Z,99209.28
2017-11-16T19:21:09.867Z,99209.81
2017-11-16T19:23:39.591Z,99213.81
2017-11-16T19:26:09.680Z,99213.78
2017-11-16T19:28:39.538Z,99219.48
2017-11-16T19:31:09.515Z,99215.30
2017-11-16T19:33:39.637Z,99217.66
2017-11-16T19:36:09.791Z,99211.72
2017-11-16T19:38:41.214Z,99219.59
2017-11-16T19:41:13.346Z,99223.67
2017-11-16T19:48:56.942Z,99224.59
2017-11-16T19:51:29.153Z,99226.14
2017-11-16T19:53:59.214Z,99229.78
2017-11-16T19:56:29.395Z,99231.77
2017-11-16T19:58:59.965Z,99224.30
2017-11-16T20:04:05.358Z,99228.00
2017-11-16T20:06:35.860Z,99223.73
2017-11-16T20:09:05.603Z,99234.84
2017-11-16T20:11:35.744Z,99232.77
2017-11-16T20:14:05.963Z,99233.89
2017-11-16T20:16:35.943Z,99227.34
2017-11-16T20:19:07.109Z,99240.02
2017-11-16T20:21:36.953Z,99237.06
2017-11-16T20:24:07.013Z,99240.08
2017-11-16T20:26:38.051Z,99238.49
2017-11-16T20:29:09.016Z,99241.63
2017-11-16T20:31:39.432Z,99238.89
2017-11-16T20:34:10.167Z,99243.84
2017-11-16T20:36:40.091Z,99243.48
2017-11-16T20:42:49.198Z,99246.27
2017-11-16T20:54:03.506Z,99241.78
2017-11-16T20:56:33.415Z,99237.65
2017-11-16T20:59:03.211Z,99247.63
2017-11-16T21:01:38.054Z,99240.98
2017-11-16T21:04:12.382Z,99247.09
2017-11-16T21:09:33.377Z,99254.13
2017-11-16T21:12:03.907Z,99254.99
2017-11-16T21:27:12.290Z,99254.52
2017-11-16T21:32:32.881Z,99254.34
2017-11-16T21:35:11.121Z,99248.28
2017-11-16T21:37:42.884Z,99259.09
2017-11-16T21:42:48.532Z,99255.35
2017-11-16T21:45:19.517Z,99262.51
2017-11-16T21:47:50.474Z,99263.56
2017-11-16T21:52:56.202Z,99268.39
2017-11-16T21:55:26.898Z,99263.70
2017-11-16T21:57:56.863Z,99270.61
2017-11-16T22:00:26.625Z,99277.05
2017-11-16T22:02:56.587Z,99277.30
2017-11-16T22:05:26.924Z,99277.02
2017-11-16T22:10:33.932Z,99278.55
2017-11-16T22:13:04.858Z,99276.47
2017-11-16T22:15:36.474Z,99279.27
2017-11-16T22:18:06.827Z,99280.88
2017-11-16T22:20:38.543Z,99276.56
2017-11-16T22:23:08.623Z,99274.02
2017-11-16T22:30:48.121Z,99279.00
2017-11-16T22:33:20.566Z,99276.46
2017-11-16T22:35:58.298Z,99270.31
2017-11-16T22:38:28.976Z,99277.02
2017-11-16T22:43:33.931Z,99277.76
2017-11-16T22:48:42.405Z,99288.16
2017-11-16T22:51:14.635Z,99285.70
2017-11-16T22:53:45.371Z,99284.74
2017-11-16T22:56:17.708Z,99286.00
2017-11-16T23:01:33.172Z,99295.19
2017-11-16T23:04:03.071Z,99296.80
2017-11-16T23:06:33.776Z,99303.25
2017-11-16T23:11:37.653Z,99305.95
2017-11-16T23:14:09.081Z,99295.23
2017-11-16T23:16:40.785Z,99292.16
2017-11-16T23:19:10.875Z,99292.48
2017-11-16T23:21:43.478Z,99292.61
2017-11-16T23:26:47.919Z,99294.86
2017-11-16T23:29:18.071Z,99295.77
2017-11-16T23:31:52.185Z,99294.44
2017-11-16T23:34:23.922Z,99294.31
2017-11-16T23:36:55.796Z,99295.64
2017-11-16T23:55:09.491Z,99295.19
2017-11-16T23:57:39.876Z,99283.38
